sensor_id;sensor_type;location;lat;lon;timestamp;pressure;altitude;pressure_sealevel;temperature;humidity
29169;BME280;16219;42.864;23.360;2023-04-27T00:01:00;95538.56;;;7.72;100.00
29169;BME280;16219;42.864;23.360;2023-04-27T00:03:27;95535.81;;;7.77;100.00
29169;BME280;16219;42.864;23.360;2023-04-27T00:05:54;95531.63;;;7.76;100.00
29169;BME280;16219;42.864;23.360;2023-04-27T00:08:21;95538.50;;;7.86;100.00
29169;BME280;16219;42.864;23.360;2023-04-27T00:10:48;95540.13;;;7.95;100.00
29169;BME280;16219;42.864;23.360;2023-04-27T00:13:16;95543.72;;;7.99;100.00
29169;BME280;16219;42.864;23.360;2023-04-27T00:15:43;95548.25;;;8.08;100.00
29169;BME280;16219;42.864;23.360;2023-04-27T00:18:10;95537.00;;;8.16;100.00
29169;BME280;16219;42.864;23.360;2023-04-27T00:20:37;95543.00;;;8.08;100.00
29169;BME280;16219;42.864;23.360;2023-04-27T00:23:05;95540.97;;;7.82;100.00
29169;BME280;16219;42.864;23.360;2023-04-27T00:25:32;95550.50;;;7.78;100.00
29169;BME280;16219;42.864;23.360;2023-04-27T00:27:59;95547.69;;;7.74;100.00
29169;BME280;16219;42.864;23.360;2023-04-27T00:30:27;95551.69;;;7.72;100.00
29169;BME280;16219;42.864;23.360;2023-04-27T00:32:54;95553.34;;;7.68;100.00
29169;BME280;16219;42.864;23.360;2023-04-27T00:35:21;95543.41;;;7.56;100.00
29169;BME280;16219;42.864;23.360;2023-04-27T00:37:49;95551.06;;;7.53;100.00
29169;BME280;16219;42.864;23.360;2023-04-27T00:40:16;95553.78;;;7.47;100.00
29169;BME280;16219;42.864;23.360;2023-04-27T00:42:43;95552.13;;;7.51;100.00
29169;BME280;16219;42.864;23.360;2023-04-27T00:45:10;95549.50;;;7.51;100.00
29169;BME280;16219;42.864;23.360;2023-04-27T00:47:39;95524.97;;;7.34;100.00
29169;BME280;16219;42.864;23.360;2023-04-27T00:50:07;95537.00;;;7.48;100.00
29169;BME280;16219;42.864;23.360;2023-04-27T00:52:35;95559.91;;;7.57;100.00
29169;BME280;16219;42.864;23.360;2023-04-27T00:55:03;95556.41;;;7.47;100.00
29169;BME280;16219;42.864;23.360;2023-04-27T00:57:32;95552.63;;;7.54;100.00
29169;BME280;16219;42.864;23.360;2023-04-27T00:59:59;95550.13;;;7.48;100.00
29169;BME280;16219;42.864;23.360;2023-04-27T01:02:27;95549.63;;;7.46;100.00
29169;BME280;16219;42.864;23.360;2023-04-27T01:04:56;95557.16;;;7.62;100.00
29169;BME280;16219;42.864;23.360;2023-04-27T01:07:24;95537.81;;;7.35;100.00
29169;BME280;16219;42.864;23.360;2023-04-27T01:09:51;95566.38;;;7.37;100.00
29169;BME280;16219;42.864;23.360;2023-04-27T01:12:18;95558.03;;;7.21;100.00
29169;BME280;16219;42.864;23.360;2023-04-27T01:14:47;95566.88;;;7.25;100.00
29169;BME280;16219;42.864;23.360;2023-04-27T01:17:14;95566.00;;;7.16;100.00
29169;BME280;16219;42.864;23.360;2023-04-27T01:19:42;95569.31;;;7.08;100.00
29169;BME280;16219;42.864;23.360;2023-04-27T01:22:11;95568.84;;;7.06;100.00
29169;BME280;16219;42.864;23.360;2023-04-27T01:24:41;95558.25;;;6.97;100.00
29169;BME280;16219;42.864;23.360;2023-04-27T01:27:08;95567.00;;;7.06;100.00
29169;BME280;16219;42.864;23.360;2023-04-27T01:29:36;95575.91;;;7.19;100.00
29169;BME280;16219;42.864;23.360;2023-04-27T01:32:03;95574.06;;;7.19;100.00
29169;BME280;16219;42.864;23.360;2023-04-27T01:34:30;95579.03;;;7.07;100.00
29169;BME280;16219;42.864;23.360;2023-04-27T01:36:57;95582.72;;;7.06;100.00
29169;BME280;16219;42.864;23.360;2023-04-27T01:39:25;95585.44;;;6.87;100.00
29169;BME280;16219;42.864;23.360;2023-04-27T01:41:53;95583.31;;;6.89;100.00
29169;BME280;16219;42.864;23.360;2023-04-27T01:44:20;95588.06;;;6.87;100.00
29169;BME280;16219;42.864;23.360;2023-04-27T01:46:48;95584.84;;;6.90;100.00
29169;BME280;16219;42.864;23.360;2023-04-27T01:49:16;95573.56;;;6.62;100.00
29169;BME280;16219;42.864;23.360;2023-04-27T01:51:42;95581.25;;;6.72;100.00
29169;BME280;16219;42.864;23.360;2023-04-27T01:54:09;95585.69;;;6.58;100.00
29169;BME280;16219;42.864;23.360;2023-04-27T01:56:37;95590.09;;;6.63;100.00
29169;BME280;16219;42.864;23.360;2023-04-27T01:59:05;95582.72;;;6.65;100.00
29169;BME280;16219;42.864;23.360;2023-04-27T02:01:32;95592.81;;;6.71;100.00
29169;BME280;16219;42.864;23.360;2023-04-27T02:03:59;95589.03;;;6.64;100.00
29169;BME280;16219;42.864;23.360;2023-04-27T02:06:28;95586.56;;;6.54;100.00
29169;BME280;16219;42.864;23.360;2023-04-27T02:08:55;95579.38;;;6.45;100.00
29169;BME280;16219;42.864;23.360;2023-04-27T02:11:22;95582.25;;;6.30;100.00
29169;BME280;16219;42.864;23.360;2023-04-27T02:13:49;95578.38;;;6.41;100.00
29169;BME280;16219;42.864;23.360;2023-04-27T02:16:18;95585.00;;;6.39;100.00
29169;BME280;16219;42.864;23.360;2023-04-27T02:18:45;95586.06;;;6.38;100.00
29169;BME280;16219;42.864;23.360;2023-04-27T02:21:18;95587.34;;;6.08;100.00
29169;BME280;16219;42.864;23.360;2023-04-27T02:23:45;95568.50;;;6.06;100.00
29169;BME280;16219;42.864;23.360;2023-04-27T02:26:16;95584.94;;;5.92;100.00
29169;BME280;16219;42.864;23.360;2023-04-27T02:28:44;95577.16;;;5.87;100.00
29169;BME280;16219;42.864;23.360;2023-04-27T02:31:12;95591.00;;;5.88;100.00
29169;BME280;16219;42.864;23.360;2023-04-27T02:33:41;95589.03;;;5.80;100.00
29169;BME280;16219;42.864;23.360;2023-04-27T02:36:08;95590.19;;;5.73;100.00
29169;BME280;16219;42.864;23.360;2023-04-27T02:38:35;95597.53;;;5.71;100.00
29169;BME280;16219;42.864;23.360;2023-04-27T02:41:04;95589.53;;;5.63;100.00
29169;BME280;16219;42.864;23.360;2023-04-27T02:43:33;95600.34;;;5.75;100.00
29169;BME280;16219;42.864;23.360;2023-04-27T02:46:01;95600.13;;;5.71;100.00
29169;BME280;16219;42.864;23.360;2023-04-27T02:48:29;95584.50;;;5.47;100.00
29169;BME280;16219;42.864;23.360;2023-04-27T02:50:57;95599.56;;;5.56;100.00
29169;BME280;16219;42.864;23.360;2023-04-27T02:53:24;95599.28;;;5.76;100.00
29169;BME280;16219;42.864;23.360;2023-04-27T02:55:51;95599.84;;;5.73;100.00
29169;BME280;16219;42.864;23.360;2023-04-27T02:58:18;95601.47;;;5.69;100.00
29169;BME280;16219;42.864;23.360;2023-04-27T03:00:46;95601.97;;;5.71;100.00
29169;BME280;16219;42.864;23.360;2023-04-27T03:03:13;95601.75;;;5.67;100.00
29169;BME280;16219;42.864;23.360;2023-04-27T03:05:40;95598.06;;;5.68;100.00
29169;BME280;16219;42.864;23.360;2023-04-27T03:08:08;95601.84;;;5.62;100.00
29169;BME280;16219;42.864;23.360;2023-04-27T03:10:35;95616.69;;;5.48;100.00
29169;BME280;16219;42.864;23.360;2023-04-27T03:13:02;95611.88;;;5.55;100.00
29169;BME280;16219;42.864;23.360;2023-04-27T03:15:29;95622.31;;;5.36;100.00
29169;BME280;16219;42.864;23.360;2023-04-27T03:17:56;95619.50;;;5.33;100.00
29169;BME280;16219;42.864;23.360;2023-04-27T03:20:23;95627.56;;;5.36;100.00
29169;BME280;16219;42.864;23.360;2023-04-27T03:22:52;95624.00;;;5.27;100.00
29169;BME280;16219;42.864;23.360;2023-04-27T03:25:21;95635.97;;;5.33;100.00
29169;BME280;16219;42.864;23.360;2023-04-27T03:27:48;95628.03;;;5.19;100.00
29169;BME280;16219;42.864;23.360;2023-04-27T03:30:15;95632.84;;;5.31;100.00
29169;BME280;16219;42.864;23.360;2023-04-27T03:32:42;95633.28;;;5.38;100.00
29169;BME280;16219;42.864;23.360;2023-04-27T03:35:09;95627.25;;;5.19;100.00
29169;BME280;16219;42.864;23.360;2023-04-27T03:37:37;95634.47;;;5.27;100.00
29169;BME280;16219;42.864;23.360;2023-04-27T03:40:05;95638.81;;;5.13;100.00
29169;BME280;16219;42.864;23.360;2023-04-27T03:42:34;95644.03;;;5.13;100.00
29169;BME280;16219;42.864;23.360;2023-04-27T03:45:01;95641.56;;;5.21;100.00
29169;BME280;16219;42.864;23.360;2023-04-27T03:47:30;95641.56;;;5.21;100.00
29169;BME280;16219;42.864;23.360;2023-04-27T03:49:57;95646.25;;;5.00;100.00
29169;BME280;16219;42.864;23.360;2023-04-27T03:52:25;95650.47;;;4.96;100.00
29169;BME280;16219;42.864;23.360;2023-04-27T03:54:52;95652.94;;;5.12;100.00
29169;BME280;16219;42.864;23.360;2023-04-27T03:57:19;95653.94;;;5.16;100.00
29169;BME280;16219;42.864;23.360;2023-04-27T03:59:48;95660.84;;;5.07;100.00
29169;BME280;16219;42.864;23.360;2023-04-27T04:02:15;95653.66;;;5.17;100.00
29169;BME280;16219;42.864;23.360;2023-04-27T04:04:42;95665.19;;;5.16;100.00
29169;BME280;16219;42.864;23.360;2023-04-27T04:07:09;95666.97;;;5.21;100.00
29169;BME280;16219;42.864;23.360;2023-04-27T04:09:36;95668.47;;;5.27;100.00
29169;BME280;16219;42.864;23.360;2023-04-27T04:12:05;95668.41;;;5.32;100.00
29169;BME280;16219;42.864;23.360;2023-04-27T04:14:32;95674.63;;;5.36;100.00
29169;BME280;16219;42.864;23.360;2023-04-27T04:17:00;95674.63;;;5.36;100.00
29169;BME280;16219;42.864;23.360;2023-04-27T04:19:27;95672.56;;;5.09;100.00
29169;BME280;16219;42.864;23.360;2023-04-27T04:21:55;95684.16;;;5.27;100.00
29169;BME280;16219;42.864;23.360;2023-04-27T04:24:23;95681.44;;;5.80;100.00
29169;BME280;16219;42.864;23.360;2023-04-27T04:26:49;95680.44;;;6.98;100.00
29169;BME280;16219;42.864;23.360;2023-04-27T04:29:17;95700.19;;;8.14;100.00
29169;BME280;16219;42.864;23.360;2023-04-27T04:31:44;95704.72;;;9.04;100.00
29169;BME280;16219;42.864;23.360;2023-04-27T04:34:12;95704.13;;;10.04;100.00
29169;BME280;16219;42.864;23.360;2023-04-27T04:36:40;95708.03;;;10.84;100.00
29169;BME280;16219;42.864;23.360;2023-04-27T04:39:07;95710.44;;;11.54;100.00
29169;BME280;16219;42.864;23.360;2023-04-27T04:41:34;95716.13;;;12.03;98.50
29169;BME280;16219;42.864;23.360;2023-04-27T04:44:02;95706.78;;;12.05;93.65
29169;BME280;16219;42.864;23.360;2023-04-27T04:46:30;95713.81;;;11.63;94.36
29169;BME280;16219;42.864;23.360;2023-04-27T04:48:57;95713.56;;;11.00;100.00
29169;BME280;16219;42.864;23.360;2023-04-27T04:51:25;95717.94;;;10.18;100.00
29169;BME280;16219;42.864;23.360;2023-04-27T04:53:52;95721.69;;;9.68;100.00
29169;BME280;16219;42.864;23.360;2023-04-27T04:56:22;95729.50;;;9.42;100.00
29169;BME280;16219;42.864;23.360;2023-04-27T04:58:49;95725.06;;;9.51;100.00
29169;BME280;16219;42.864;23.360;2023-04-27T05:01:16;95700.56;;;9.51;100.00
29169;BME280;16219;42.864;23.360;2023-04-27T05:03:43;95731.31;;;10.47;100.00
29169;BME280;16219;42.864;23.360;2023-04-27T05:06:10;95735.00;;;10.98;100.00
29169;BME280;16219;42.864;23.360;2023-04-27T05:08:39;95730.22;;;10.66;100.00
29169;BME280;16219;42.864;23.360;2023-04-27T05:11:06;95732.81;;;10.14;100.00
29169;BME280;16219;42.864;23.360;2023-04-27T05:13:33;95731.59;;;9.63;100.00
29169;BME280;16219;42.864;23.360;2023-04-27T05:16:02;95741.19;;;9.59;100.00
29169;BME280;16219;42.864;23.360;2023-04-27T05:18:29;95737.66;;;9.63;100.00
29169;BME280;16219;42.864;23.360;2023-04-27T05:20:56;95742.59;;;9.56;100.00
29169;BME280;16219;42.864;23.360;2023-04-27T05:23:23;95734.66;;;9.47;100.00
29169;BME280;16219;42.864;23.360;2023-04-27T05:25:52;95735.25;;;9.44;100.00
29169;BME280;16219;42.864;23.360;2023-04-27T05:28:19;95742.28;;;9.58;100.00
29169;BME280;16219;42.864;23.360;2023-04-27T05:30:46;95745.25;;;9.65;100.00
29169;BME280;16219;42.864;23.360;2023-04-27T05:33:13;95741.84;;;9.64;100.00
29169;BME280;16219;42.864;23.360;2023-04-27T05:35:40;95742.66;;;9.73;100.00
29169;BME280;16219;42.864;23.360;2023-04-27T05:38:08;95733.53;;;9.88;100.00
29169;BME280;16219;42.864;23.360;2023-04-27T05:40:35;95739.19;;;10.13;100.00
29169;BME280;16219;42.864;23.360;2023-04-27T05:43:03;95730.97;;;10.23;97.26
29169;BME280;16219;42.864;23.360;2023-04-27T05:45:31;95737.97;;;10.36;90.07
29169;BME280;16219;42.864;23.360;2023-04-27T05:47:58;95740.63;;;10.36;86.50
29169;BME280;16219;42.864;23.360;2023-04-27T05:50:25;95739.72;;;10.49;90.76
29169;BME280;16219;42.864;23.360;2023-04-27T05:52:52;95749.50;;;10.58;98.59
29169;BME280;16219;42.864;23.360;2023-04-27T05:55:20;95743.28;;;10.71;87.57
29169;BME280;16219;42.864;23.360;2023-04-27T05:57:47;95738.59;;;10.85;91.88
29169;BME280;16219;42.864;23.360;2023-04-27T06:00:16;95737.81;;;10.93;81.47
29169;BME280;16219;42.864;23.360;2023-04-27T06:02:44;95731.28;;;10.91;82.66
29169;BME280;16219;42.864;23.360;2023-04-27T06:05:11;95737.53;;;10.69;81.94
29169;BME280;16219;42.864;23.360;2023-04-27T06:07:38;95713.94;;;10.55;80.83
29169;BME280;16219;42.864;23.360;2023-04-27T06:10:09;95733.03;;;10.61;80.42
29169;BME280;16219;42.864;23.360;2023-04-27T06:12:36;95733.94;;;10.73;81.09
29169;BME280;16219;42.864;23.360;2023-04-27T06:15:04;95730.84;;;10.71;87.79
29169;BME280;16219;42.864;23.360;2023-04-27T06:17:34;95726.63;;;10.96;88.66
29169;BME280;16219;42.864;23.360;2023-04-27T06:20:01;95723.13;;;11.31;87.25
29169;BME280;16219;42.864;23.360;2023-04-27T06:22:29;95725.97;;;11.55;82.22
29169;BME280;16219;42.864;23.360;2023-04-27T06:24:56;95730.09;;;11.73;64.62
29169;BME280;16219;42.864;23.360;2023-04-27T06:27:23;95725.06;;;11.89;64.73
29169;BME280;16219;42.864;23.360;2023-04-27T06:29:50;95722.69;;;11.96;70.74
29169;BME280;16219;42.864;23.360;2023-04-27T06:32:17;95723.16;;;11.98;64.60
29169;BME280;16219;42.864;23.360;2023-04-27T06:34:46;95724.72;;;12.20;65.98
29169;BME280;16219;42.864;23.360;2023-04-27T06:37:13;95722.09;;;12.41;64.95
29169;BME280;16219;42.864;23.360;2023-04-27T06:39:42;95719.88;;;12.43;64.68
29169;BME280;16219;42.864;23.360;2023-04-27T06:42:09;95722.09;;;12.62;63.38
29169;BME280;16219;42.864;23.360;2023-04-27T06:44:36;95723.44;;;12.47;56.97
29169;BME280;16219;42.864;23.360;2023-04-27T06:47:03;95721.09;;;12.67;59.93
29169;BME280;16219;42.864;23.360;2023-04-27T06:49:31;95720.06;;;12.80;56.06
29169;BME280;16219;42.864;23.360;2023-04-27T06:52:01;95717.00;;;12.90;54.92
29169;BME280;16219;42.864;23.360;2023-04-27T06:54:28;95717.06;;;13.15;55.54
29169;BME280;16219;42.864;23.360;2023-04-27T06:56:55;95713.16;;;13.33;55.87
29169;BME280;16219;42.864;23.360;2023-04-27T06:59:22;95714.06;;;13.49;54.29
29169;BME280;16219;42.864;23.360;2023-04-27T07:01:49;95714.28;;;13.57;55.58
29169;BME280;16219;42.864;23.360;2023-04-27T07:04:16;95719.56;;;13.44;53.18
29169;BME280;16219;42.864;23.360;2023-04-27T07:06:43;95715.59;;;13.38;52.75
29169;BME280;16219;42.864;23.360;2023-04-27T07:09:12;95720.69;;;13.10;52.53
29169;BME280;16219;42.864;23.360;2023-04-27T07:11:39;95720.00;;;12.68;55.08
29169;BME280;16219;42.864;23.360;2023-04-27T07:14:06;95717.78;;;12.58;53.49
29169;BME280;16219;42.864;23.360;2023-04-27T07:16:33;95712.53;;;12.49;55.60
29169;BME280;16219;42.864;23.360;2023-04-27T07:19:01;95712.84;;;12.47;60.21
29169;BME280;16219;42.864;23.360;2023-04-27T07:21:28;95713.81;;;12.64;57.09
29169;BME280;16219;42.864;23.360;2023-04-27T07:23:55;95716.78;;;12.62;53.73
29169;BME280;16219;42.864;23.360;2023-04-27T07:26:24;95714.44;;;12.61;54.66
29169;BME280;16219;42.864;23.360;2023-04-27T07:28:51;95713.41;;;12.74;56.02
29169;BME280;16219;42.864;23.360;2023-04-27T07:31:19;95707.97;;;13.04;53.31
29169;BME280;16219;42.864;23.360;2023-04-27T07:33:46;95715.38;;;13.43;52.05
29169;BME280;16219;42.864;23.360;2023-04-27T07:36:13;95716.19;;;13.81;53.56
29169;BME280;16219;42.864;23.360;2023-04-27T07:38:40;95713.81;;;14.04;51.62
29169;BME280;16219;42.864;23.360;2023-04-27T07:41:08;95714.28;;;13.93;51.90
29169;BME280;16219;42.864;23.360;2023-04-27T07:43:37;95719.47;;;14.02;54.42
29169;BME280;16219;42.864;23.360;2023-04-27T07:46:04;95699.47;;;13.92;52.43
29169;BME280;16219;42.864;23.360;2023-04-27T07:48:32;95701.22;;;13.88;50.90
29169;BME280;16219;42.864;23.360;2023-04-27T07:50:59;95705.75;;;13.88;50.71
29169;BME280;16219;42.864;23.360;2023-04-27T07:53:26;95711.41;;;13.49;46.76
29169;BME280;16219;42.864;23.360;2023-04-27T07:55:53;95704.22;;;12.92;48.72
29169;BME280;16219;42.864;23.360;2023-04-27T07:58:20;95702.72;;;12.70;49.21
29169;BME280;16219;42.864;23.360;2023-04-27T08:00:48;95700.78;;;12.59;53.56
29169;BME280;16219;42.864;23.360;2023-04-27T08:03:16;95703.09;;;12.39;52.00
29169;BME280;16219;42.864;23.360;2023-04-27T08:05:43;95708.25;;;12.57;53.67
29169;BME280;16219;42.864;23.360;2023-04-27T08:08:10;95707.63;;;12.60;49.06
29169;BME280;16219;42.864;23.360;2023-04-27T08:10:37;95713.56;;;12.57;53.23
29169;BME280;16219;42.864;23.360;2023-04-27T08:13:05;95718.34;;;12.63;53.27
29169;BME280;16219;42.864;23.360;2023-04-27T08:15:34;95710.75;;;12.74;48.95
29169;BME280;16219;42.864;23.360;2023-04-27T08:18:03;95713.31;;;12.49;48.97
29169;BME280;16219;42.864;23.360;2023-04-27T08:20:30;95702.19;;;12.56;50.63
29169;BME280;16219;42.864;23.360;2023-04-27T08:22:57;95707.16;;;12.79;52.76
29169;BME280;16219;42.864;23.360;2023-04-27T08:25:24;95709.97;;;13.07;53.70
29169;BME280;16219;42.864;23.360;2023-04-27T08:27:51;95707.00;;;13.54;52.61
29169;BME280;16219;42.864;23.360;2023-04-27T08:30:18;95699.16;;;13.82;49.53
29169;BME280;16219;42.864;23.360;2023-04-27T08:32:45;95699.94;;;13.82;47.17
29169;BME280;16219;42.864;23.360;2023-04-27T08:35:14;95705.56;;;13.81;47.45
29169;BME280;16219;42.864;23.360;2023-04-27T08:37:41;95702.16;;;13.68;46.16
29169;BME280;16219;42.864;23.360;2023-04-27T08:40:09;95709.88;;;13.73;47.15
29169;BME280;16219;42.864;23.360;2023-04-27T08:42:37;95710.28;;;13.63;46.08
29169;BME280;16219;42.864;23.360;2023-04-27T08:45:06;95722.75;;;13.38;45.36
29169;BME280;16219;42.864;23.360;2023-04-27T08:47:35;95712.66;;;13.19;46.49
29169;BME280;16219;42.864;23.360;2023-04-27T08:50:05;95715.75;;;13.09;48.21
29169;BME280;16219;42.864;23.360;2023-04-27T08:52:33;95712.00;;;13.22;46.68
29169;BME280;16219;42.864;23.360;2023-04-27T08:55:01;95708.06;;;13.28;49.09
29169;BME280;16219;42.864;23.360;2023-04-27T08:57:29;95711.41;;;13.49;47.73
29169;BME280;16219;42.864;23.360;2023-04-27T08:59:59;95696.50;;;13.94;50.63
29169;BME280;16219;42.864;23.360;2023-04-27T09:02:26;95716.63;;;14.35;48.19
29169;BME280;16219;42.864;23.360;2023-04-27T09:04:54;95697.44;;;14.14;48.78
29169;BME280;16219;42.864;23.360;2023-04-27T09:07:21;95697.25;;;14.07;49.11
29169;BME280;16219;42.864;23.360;2023-04-27T09:10:01;95700.59;;;13.67;45.34
29169;BME280;16219;42.864;23.360;2023-04-27T09:12:28;95709.41;;;13.59;44.63
29169;BME280;16219;42.864;23.360;2023-04-27T09:14:56;95706.56;;;13.52;44.47
29169;BME280;16219;42.864;23.360;2023-04-27T09:17:24;95713.03;;;13.42;45.48
29169;BME280;16219;42.864;23.360;2023-04-27T09:20:02;95711.38;;;13.25;44.54
29169;BME280;16219;42.864;23.360;2023-04-27T09:22:30;95708.97;;;13.57;44.72
29169;BME280;16219;42.864;23.360;2023-04-27T09:24:59;95706.56;;;13.52;43.82
29169;BME280;16219;42.864;23.360;2023-04-27T09:27:26;95709.22;;;13.64;46.79
29169;BME280;16219;42.864;23.360;2023-04-27T09:29:53;95708.09;;;13.77;46.27
29169;BME280;16219;42.864;23.360;2023-04-27T09:32:20;95717.81;;;13.73;44.57
29169;BME280;16219;42.864;23.360;2023-04-27T09:34:48;95705.75;;;13.63;44.06
29169;BME280;16219;42.864;23.360;2023-04-27T09:37:15;95712.41;;;13.82;45.42
29169;BME280;16219;42.864;23.360;2023-04-27T09:39:44;95704.13;;;13.71;43.19
29169;BME280;16219;42.864;23.360;2023-04-27T09:42:13;95705.00;;;13.63;42.46
29169;BME280;16219;42.864;23.360;2023-04-27T09:44:40;95702.66;;;13.37;42.29
29169;BME280;16219;42.864;23.360;2023-04-27T09:47:08;95705.66;;;13.47;45.54
29169;BME280;16219;42.864;23.360;2023-04-27T09:49:36;95699.16;;;13.69;45.94
29169;BME280;16219;42.864;23.360;2023-04-27T09:52:03;95695.72;;;13.57;45.76
29169;BME280;16219;42.864;23.360;2023-04-27T09:54:32;95694.41;;;13.63;45.51
29169;BME280;16219;42.864;23.360;2023-04-27T09:57:09;95697.28;;;13.58;44.30
29169;BME280;16219;42.864;23.360;2023-04-27T10:00:02;95683.13;;;13.54;45.11
29169;BME280;16219;42.864;23.360;2023-04-27T10:02:41;95687.78;;;13.57;46.46
29169;BME280;16219;42.864;23.360;2023-04-27T10:05:30;95682.00;;;13.91;46.05
29169;BME280;16219;42.864;23.360;2023-04-27T10:08:02;95679.88;;;14.09;44.71
29169;BME280;16219;42.864;23.360;2023-04-27T10:10:41;95672.81;;;14.54;47.24
29169;BME280;16219;42.864;23.360;2023-04-27T10:13:19;95676.00;;;14.87;46.15
29169;BME280;16219;42.864;23.360;2023-04-27T10:15:49;95682.94;;;14.92;43.12
29169;BME280;16219;42.864;23.360;2023-04-27T10:18:28;95671.91;;;14.62;44.10
29169;BME280;16219;42.864;23.360;2023-04-27T10:20:56;95672.13;;;14.57;43.16
29169;BME280;16219;42.864;23.360;2023-04-27T10:23:44;95673.09;;;14.36;43.59
29169;BME280;16219;42.864;23.360;2023-04-27T10:26:21;95667.25;;;14.18;44.64
29169;BME280;16219;42.864;23.360;2023-04-27T10:29:07;95677.06;;;14.30;46.29
29169;BME280;16219;42.864;23.360;2023-04-27T10:31:54;95670.72;;;14.07;44.79
29169;BME280;16219;42.864;23.360;2023-04-27T10:34:22;95672.63;;;13.94;45.49
29169;BME280;16219;42.864;23.360;2023-04-27T10:36:49;95667.00;;;13.83;44.92
29169;BME280;16219;42.864;23.360;2023-04-27T10:39:16;95672.66;;;13.69;46.32
29169;BME280;16219;42.864;23.360;2023-04-27T10:41:51;95666.78;;;13.76;47.06
29169;BME280;16219;42.864;23.360;2023-04-27T10:44:24;95660.69;;;13.88;45.35
29169;BME280;16219;42.864;23.360;2023-04-27T10:46:54;95659.41;;;14.10;46.06
29169;BME280;16219;42.864;23.360;2023-04-27T10:49:22;95654.78;;;14.19;44.47
29169;BME280;16219;42.864;23.360;2023-04-27T10:51:50;95656.38;;;13.95;45.26
29169;BME280;16219;42.864;23.360;2023-04-27T10:54:17;95667.22;;;13.90;44.35
29169;BME280;16219;42.864;23.360;2023-04-27T10:56:45;95659.06;;;14.23;45.58
29169;BME280;16219;42.864;23.360;2023-04-27T10:59:12;95666.88;;;14.72;44.30
29169;BME280;16219;42.864;23.360;2023-04-27T11:01:39;95656.19;;;14.57;44.24
29169;BME280;16219;42.864;23.360;2023-04-27T11:04:08;95666.25;;;14.91;42.77
29169;BME280;16219;42.864;23.360;2023-04-27T11:06:41;95671.41;;;15.47;41.16
29169;BME280;16219;42.864;23.360;2023-04-27T11:09:09;95665.22;;;14.68;44.60
29169;BME280;16219;42.864;23.360;2023-04-27T11:11:36;95672.59;;;14.06;45.53
29169;BME280;16219;42.864;23.360;2023-04-27T11:14:04;95666.78;;;13.76;45.25
29169;BME280;16219;42.864;23.360;2023-04-27T11:16:32;95661.69;;;13.83;46.13
29169;BME280;16219;42.864;23.360;2023-04-27T11:19:03;95661.25;;;13.81;45.75
29169;BME280;16219;42.864;23.360;2023-04-27T11:21:32;95644.59;;;13.68;45.02
29169;BME280;16219;42.864;23.360;2023-04-27T11:24:04;95671.88;;;13.69;45.52
29169;BME280;16219;42.864;23.360;2023-04-27T11:26:31;95660.16;;;13.58;46.66
29169;BME280;16219;42.864;23.360;2023-04-27T11:28:59;95663.81;;;13.53;45.73
29169;BME280;16219;42.864;23.360;2023-04-27T11:31:36;95660.72;;;13.39;47.39
29169;BME280;16219;42.864;23.360;2023-04-27T11:34:05;95669.44;;;13.52;47.46
29169;BME280;16219;42.864;23.360;2023-04-27T11:36:34;95675.84;;;13.50;46.64
29169;BME280;16219;42.864;23.360;2023-04-27T11:39:02;95675.63;;;13.43;46.93
29169;BME280;16219;42.864;23.360;2023-04-27T11:41:34;95680.59;;;13.33;47.06
29169;BME280;16219;42.864;23.360;2023-04-27T11:44:05;95672.00;;;13.02;47.33
29169;BME280;16219;42.864;23.360;2023-04-27T11:46:34;95678.03;;;12.91;47.79
29169;BME280;16219;42.864;23.360;2023-04-27T11:49:02;95683.69;;;12.89;48.01
29169;BME280;16219;42.864;23.360;2023-04-27T11:51:31;95676.34;;;12.74;48.33
29169;BME280;16219;42.864;23.360;2023-04-27T11:54:04;95681.19;;;12.72;48.07
29169;BME280;16219;42.864;23.360;2023-04-27T11:56:36;95693.41;;;12.64;50.84
29169;BME280;16219;42.864;23.360;2023-04-27T11:59:03;95688.88;;;12.65;48.37
29169;BME280;16219;42.864;23.360;2023-04-27T12:01:32;95688.75;;;12.61;48.22
29169;BME280;16219;42.864;23.360;2023-04-27T12:04:00;95682.25;;;12.59;48.33
29169;BME280;16219;42.864;23.360;2023-04-27T12:06:28;95685.16;;;12.66;48.35
29169;BME280;16219;42.864;23.360;2023-04-27T12:08:56;95684.19;;;12.83;49.17
29169;BME280;16219;42.864;23.360;2023-04-27T12:11:25;95687.94;;;12.82;47.14
29169;BME280;16219;42.864;23.360;2023-04-27T12:13:52;95668.81;;;12.64;47.79
29169;BME280;16219;42.864;23.360;2023-04-27T12:16:20;95680.91;;;12.86;49.51
29169;BME280;16219;42.864;23.360;2023-04-27T12:18:48;95689.56;;;13.07;47.96
29169;BME280;16219;42.864;23.360;2023-04-27T12:21:16;95691.69;;;13.14;48.09
29169;BME280;16219;42.864;23.360;2023-04-27T12:23:43;95688.81;;;13.19;50.07
29169;BME280;16219;42.864;23.360;2023-04-27T12:26:11;95688.38;;;13.17;47.75
29169;BME280;16219;42.864;23.360;2023-04-27T12:28:40;95681.53;;;13.16;49.95
29169;BME280;16219;42.864;23.360;2023-04-27T12:31:07;95688.41;;;13.29;47.88
29169;BME280;16219;42.864;23.360;2023-04-27T12:33:34;95678.97;;;13.07;47.42
29169;BME280;16219;42.864;23.360;2023-04-27T12:36:02;95692.13;;;13.16;48.41
29169;BME280;16219;42.864;23.360;2023-04-27T12:38:29;95689.44;;;13.04;48.67
29169;BME280;16219;42.864;23.360;2023-04-27T12:40:57;95680.50;;;12.96;47.28
29169;BME280;16219;42.864;23.360;2023-04-27T12:43:27;95681.91;;;12.93;47.21
29169;BME280;16219;42.864;23.360;2023-04-27T12:45:56;95692.84;;;12.92;47.81
29169;BME280;16219;42.864;23.360;2023-04-27T12:48:23;95690.06;;;12.88;47.87
29169;BME280;16219;42.864;23.360;2023-04-27T12:50:51;95694.72;;;12.91;47.74
29169;BME280;16219;42.864;23.360;2023-04-27T12:53:19;95690.84;;;12.89;47.14
29169;BME280;16219;42.864;23.360;2023-04-27T12:55:46;95687.44;;;12.88;47.17